createdAt,value
2018-07-03T00:01:42.196Z,17.18
2018-07-03T00:04:12.532Z,19.66
2018-07-03T00:06:42.292Z,19.41
2018-07-03T00:09:12.247Z,19.24
2018-07-03T00:11:42.380Z,19.14
2018-07-03T00:14:12.273Z,19.33
2018-07-03T00:16:47.511Z,19.17
2018-07-03T00:19:17.338Z,19.23
2018-07-03T00:21:47.570Z,19.04
2018-07-03T00:24:17.257Z,19.01
2018-07-03T00:26:47.408Z,19.20
2018-07-03T00:29:17.089Z,19.07
2018-07-03T00:31:46.734Z,18.98
2018-07-03T00:34:16.939Z,18.98
2018-07-03T00:36:46.722Z,18.94
2018-07-03T00:39:16.547Z,18.92
2018-07-03T00:41:46.451Z,18.98
2018-07-03T00:44:16.396Z,18.93
2018-07-03T00:46:46.519Z,18.94
2018-07-03T00:49:16.326Z,18.83
2018-07-03T00:51:46.515Z,18.91
2018-07-03T00:54:16.594Z,18.95
2018-07-03T00:56:46.535Z,18.82
2018-07-03T00:59:16.437Z,18.84
2018-07-03T01:01:46.715Z,18.80
2018-07-03T01:04:16.836Z,18.83
2018-07-03T01:06:46.553Z,18.87
2018-07-03T01:09:16.379Z,18.96
2018-07-03T01:11:46.507Z,18.93
2018-07-03T01:14:16.233Z,19.01
2018-07-03T01:16:46.474Z,18.97
2018-07-03T01:19:16.182Z,18.98
2018-07-03T01:21:46.834Z,18.94
2018-07-03T01:24:16.884Z,19.12
2018-07-03T01:26:46.478Z,19.36
2018-07-03T01:29:16.163Z,19.34
2018-07-03T01:31:45.723Z,19.30
2018-07-03T01:34:15.505Z,19.17
2018-07-03T01:36:45.415Z,19.34
2018-07-03T01:39:15.291Z,19.27
2018-07-03T01:41:45.032Z,19.29
2018-07-03T01:44:15.803Z,19.25
2018-07-03T01:46:45.805Z,19.36
2018-07-03T01:49:15.499Z,19.22
2018-07-03T01:51:45.494Z,19.18
2018-07-03T01:54:15.656Z,19.21
2018-07-03T01:56:45.311Z,19.24
2018-07-03T01:59:14.883Z,19.17
2018-07-03T02:01:44.582Z,19.12
2018-07-03T02:04:14.538Z,18.94
2018-07-03T02:06:44.465Z,18.91
2018-07-03T02:09:14.973Z,18.81
2018-07-03T02:11:44.758Z,18.58
2018-07-03T02:14:14.797Z,18.63
2018-07-03T02:16:44.883Z,18.47
2018-07-03T02:19:15.038Z,18.42
2018-07-03T02:21:44.898Z,18.82
2018-07-03T02:24:14.544Z,18.95
2018-07-03T02:26:44.510Z,18.96
2018-07-03T02:29:14.055Z,18.94
2018-07-03T02:31:44.203Z,19.02
2018-07-03T02:34:13.837Z,18.95
2018-07-03T02:36:43.715Z,18.93
2018-07-03T02:39:13.958Z,18.91
2018-07-03T02:41:43.644Z,18.77
2018-07-03T02:44:13.703Z,18.67
2018-07-03T02:46:44.058Z,18.58
2018-07-03T02:49:13.923Z,18.35
2018-07-03T02:51:43.962Z,18.32
2018-07-03T02:54:13.518Z,18.24
2018-07-03T02:56:43.267Z,18.30
2018-07-03T02:59:13.190Z,18.27
2018-07-03T03:01:42.975Z,18.30
2018-07-03T03:04:13.426Z,18.25
2018-07-03T03:06:43.326Z,18.24
2018-07-03T03:09:14.072Z,18.27
2018-07-03T03:11:43.862Z,18.36
2018-07-03T03:14:14.363Z,18.43
2018-07-03T03:16:44.100Z,18.44
2018-07-03T03:19:14.419Z,18.47
2018-07-03T03:21:44.143Z,18.48
2018-07-03T03:24:13.889Z,18.52
2018-07-03T03:26:43.463Z,18.53
2018-07-03T03:29:13.110Z,18.48
2018-07-03T03:31:43.025Z,18.50
2018-07-03T03:34:13.009Z,18.53
2018-07-03T03:36:42.747Z,18.46
2018-07-03T03:39:12.777Z,18.53
2018-07-03T03:41:42.491Z,18.65
2018-07-03T03:44:12.474Z,18.68
2018-07-03T03:46:42.052Z,18.57
2018-07-03T03:49:11.693Z,18.51
2018-07-03T03:51:41.999Z,18.57
2018-07-03T03:54:11.672Z,18.57
2018-07-03T03:56:41.187Z,18.61
2018-07-03T03:59:11.027Z,18.66
2018-07-03T04:01:41.111Z,18.87
2018-07-03T04:04:11.090Z,19.04
2018-07-03T04:06:40.975Z,19.29
2018-07-03T04:09:11.831Z,19.38
2018-07-03T04:11:41.735Z,19.48
2018-07-03T04:14:11.632Z,19.51
2018-07-03T04:16:41.779Z,19.60
2018-07-03T04:19:11.632Z,19.66
2018-07-03T04:21:41.203Z,19.72
2018-07-03T04:24:10.727Z,19.84
2018-07-03T04:26:40.332Z,19.89
2018-07-03T04:29:10.348Z,20.09
2018-07-03T04:31:40.241Z,20.18
2018-07-03T04:34:09.761Z,20.36
2018-07-03T04:36:40.489Z,20.52
2018-07-03T04:39:10.967Z,20.63
2018-07-03T04:41:41.357Z,20.80
2018-07-03T04:44:11.045Z,20.88
2018-07-03T04:46:40.899Z,21.02
2018-07-03T04:49:10.915Z,21.12
2018-07-03T04:51:40.468Z,21.26
2018-07-03T04:54:10.017Z,21.43
2018-07-03T04:56:39.710Z,21.52
2018-07-03T04:59:09.420Z,21.67
2018-07-03T05:01:39.003Z,21.80
2018-07-03T05:04:08.823Z,21.91
2018-07-03T05:06:38.526Z,22.01
2018-07-03T05:09:10.580Z,22.14
2018-07-03T05:11:40.563Z,22.22
2018-07-03T05:14:10.551Z,22.37
2018-07-03T05:16:40.591Z,22.50
2018-07-03T05:19:10.329Z,22.75
2018-07-03T05:21:39.926Z,22.66
2018-07-03T05:24:09.896Z,22.77
2018-07-03T05:26:39.402Z,22.94
2018-07-03T05:29:09.145Z,22.86
2018-07-03T05:31:39.677Z,23.16
2018-07-03T05:34:09.666Z,23.16
2018-07-03T05:36:39.616Z,23.31
2018-07-03T05:39:11.340Z,23.34
2018-07-03T05:41:41.579Z,23.47
2018-07-03T05:44:11.142Z,23.45
2018-07-03T05:46:40.781Z,23.64
2018-07-03T05:49:11.178Z,23.64
2018-07-03T05:51:40.787Z,23.61
2018-07-03T05:54:10.911Z,23.43
2018-07-03T05:56:40.216Z,23.45
2018-07-03T05:59:09.741Z,23.51
2018-07-03T06:01:39.890Z,23.60
2018-07-03T06:04:09.578Z,23.61
2018-07-03T06:06:39.585Z,23.89
2018-07-03T06:09:10.928Z,23.85
2018-07-03T06:11:40.737Z,23.73
2018-07-03T06:14:10.905Z,24.04
2018-07-03T06:16:40.808Z,23.98
2018-07-03T06:19:10.904Z,24.22
2018-07-03T06:21:41.015Z,24.37
2018-07-03T06:24:10.700Z,24.35
2018-07-03T06:26:40.976Z,24.43
2018-07-03T06:29:10.898Z,24.61
2018-07-03T06:31:40.999Z,24.71
2018-07-03T06:34:10.886Z,24.75
2018-07-03T06:36:40.562Z,24.96
2018-07-03T06:39:12.654Z,25.01
2018-07-03T06:41:42.651Z,25.22
2018-07-03T06:44:12.340Z,25.25
2018-07-03T06:46:42.091Z,25.26
2018-07-03T06:49:11.846Z,25.47
2018-07-03T06:51:41.567Z,25.47
2018-07-03T06:54:11.234Z,25.56
2018-07-03T06:56:41.406Z,25.60
2018-07-03T06:59:11.035Z,25.60
2018-07-03T07:01:40.711Z,25.59
2018-07-03T07:04:10.802Z,25.58
2018-07-03T07:06:40.394Z,25.57
2018-07-03T07:09:11.001Z,25.71
2018-07-03T07:11:40.716Z,25.81
2018-07-03T07:14:10.367Z,25.89
2018-07-03T07:16:40.138Z,25.87
2018-07-03T07:19:09.758Z,25.82
2018-07-03T07:21:39.430Z,25.88
2018-07-03T07:24:09.000Z,25.79
2018-07-03T07:26:38.985Z,25.85
2018-07-03T07:29:09.017Z,25.70
2018-07-03T07:31:39.218Z,25.82
2018-07-03T07:34:08.931Z,26.04
2018-07-03T07:36:39.043Z,26.11
2018-07-03T07:39:11.168Z,25.69
2018-07-03T07:41:41.950Z,26.05
2018-07-03T07:44:11.814Z,26.02
2018-07-03T07:46:41.475Z,26.18
2018-07-03T07:49:11.600Z,26.41
2018-07-03T07:51:41.175Z,26.28
2018-07-03T07:54:10.962Z,26.58
2018-07-03T07:56:40.876Z,26.74
2018-07-03T07:59:10.990Z,26.88
2018-07-03T08:01:41.216Z,26.95
2018-07-03T08:04:11.486Z,26.93
2018-07-03T08:06:41.364Z,26.95
2018-07-03T08:09:11.822Z,27.02
2018-07-03T08:11:41.841Z,27.16
2018-07-03T08:14:11.870Z,27.22
2018-07-03T08:16:41.624Z,27.43
2018-07-03T08:19:11.223Z,27.66
2018-07-03T08:21:41.147Z,27.64
2018-07-03T08:24:10.839Z,27.68
2018-07-03T08:26:40.961Z,27.75
2018-07-03T08:29:10.576Z,27.85
2018-07-03T08:31:40.156Z,27.91
2018-07-03T08:34:10.381Z,27.72
2018-07-03T08:36:40.166Z,27.71
2018-07-03T08:39:11.770Z,27.85
2018-07-03T08:41:41.643Z,27.63
2018-07-03T08:44:11.625Z,27.70
2018-07-03T08:46:41.217Z,27.66
2018-07-03T08:49:10.798Z,27.71
2018-07-03T08:51:40.845Z,27.79
2018-07-03T08:54:10.799Z,28.05
2018-07-03T08:56:40.658Z,28.12
2018-07-03T08:59:10.814Z,28.26
2018-07-03T09:01:40.558Z,27.97
2018-07-03T09:04:10.596Z,28.13
2018-07-03T09:06:40.382Z,27.87
2018-07-03T09:09:11.572Z,28.13
2018-07-03T09:11:41.642Z,28.26
2018-07-03T09:14:11.301Z,28.27
2018-07-03T09:16:40.906Z,28.58
2018-07-03T09:19:10.514Z,28.82
2018-07-03T09:21:40.064Z,29.03
2018-07-03T09:24:10.307Z,29.39
2018-07-03T09:26:40.262Z,29.21
2018-07-03T09:29:10.451Z,29.32
2018-07-03T09:31:40.769Z,29.69
2018-07-03T09:34:10.687Z,29.76
2018-07-03T09:36:40.608Z,29.46
2018-07-03T09:39:11.435Z,29.64
2018-07-03T09:41:41.402Z,29.35
2018-07-03T09:44:11.089Z,29.03
2018-07-03T09:46:41.120Z,29.08
2018-07-03T09:49:10.839Z,29.23
2018-07-03T09:51:40.708Z,29.55
2018-07-03T09:54:10.758Z,29.36
2018-07-03T09:56:40.415Z,29.89
2018-07-03T09:59:10.917Z,29.99
2018-07-03T10:01:40.705Z,30.13
2018-07-03T10:04:11.001Z,30.17
2018-07-03T10:06:40.963Z,30.53
2018-07-03T10:09:12.586Z,31.14
2018-07-03T10:11:42.263Z,31.19
2018-07-03T10:14:12.247Z,31.15
2018-07-03T10:16:41.892Z,30.64
2018-07-03T10:19:11.468Z,31.08
2018-07-03T10:21:41.654Z,31.19
2018-07-03T10:24:11.223Z,31.82
2018-07-03T10:26:41.063Z,31.52
2018-07-03T10:29:11.024Z,32.17
2018-07-03T10:31:40.925Z,32.54
2018-07-03T10:34:10.706Z,32.47
2018-07-03T10:36:40.635Z,31.93
2018-07-03T10:39:12.060Z,32.18
2018-07-03T10:41:42.301Z,32.71
2018-07-03T10:44:11.784Z,32.50
2018-07-03T10:46:41.821Z,32.73
2018-07-03T10:49:11.432Z,32.86
2018-07-03T10:51:41.399Z,32.87
2018-07-03T10:54:11.050Z,32.80
2018-07-03T10:56:40.771Z,32.77
2018-07-03T10:59:10.550Z,32.97
2018-07-03T11:01:40.558Z,33.09
2018-07-03T11:04:10.755Z,33.16
2018-07-03T11:06:40.644Z,33.20
2018-07-03T11:09:12.263Z,33.39
2018-07-03T11:11:42.007Z,33.52
2018-07-03T11:14:11.661Z,33.80
2018-07-03T11:16:41.631Z,33.81
2018-07-03T11:19:11.220Z,32.80
2018-07-03T11:21:41.681Z,33.72
2018-07-03T11:24:11.344Z,34.01
2018-07-03T11:26:41.075Z,34.03
2018-07-03T11:29:11.110Z,34.13
2018-07-03T11:31:41.075Z,33.32
2018-07-03T11:34:10.775Z,34.06
2018-07-03T11:36:40.518Z,34.84
2018-07-03T11:39:10.650Z,34.85
2018-07-03T11:41:41.003Z,34.87
2018-07-03T11:44:10.584Z,34.88
2018-07-03T11:46:40.266Z,35.04
2018-07-03T11:49:10.034Z,35.25
2018-07-03T11:51:39.924Z,35.35
2018-07-03T11:54:09.775Z,35.67
2018-07-03T11:56:40.007Z,35.85
2018-07-03T11:59:09.992Z,36.31
2018-07-03T12:01:40.180Z,36.67
2018-07-03T12:04:09.922Z,36.95
2018-07-03T12:06:40.055Z,36.88
2018-07-03T12:09:10.707Z,36.69
2018-07-03T12:11:41.443Z,36.62
2018-07-03T12:14:11.475Z,36.51
2018-07-03T12:16:41.508Z,36.82
2018-07-03T12:19:11.210Z,36.60
2018-07-03T12:21:40.864Z,36.48
2018-07-03T12:24:11.223Z,35.70
2018-07-03T12:26:41.033Z,36.02
2018-07-03T12:29:11.303Z,35.70
2018-07-03T12:31:41.137Z,36.64
2018-07-03T12:34:10.833Z,36.74
2018-07-03T12:36:40.813Z,36.73
2018-07-03T12:39:11.887Z,36.66
2018-07-03T12:41:41.474Z,37.22
2018-07-03T12:44:11.113Z,37.92
2018-07-03T12:46:40.677Z,37.49
2018-07-03T12:49:10.333Z,37.25
2018-07-03T12:51:40.495Z,36.62
2018-07-03T12:54:10.076Z,37.31
2018-07-03T12:56:39.886Z,37.51
2018-07-03T12:59:09.747Z,37.32
2018-07-03T13:01:39.418Z,37.78
2018-07-03T13:04:09.338Z,38.01
2018-07-03T13:06:39.424Z,38.23
2018-07-03T13:09:10.838Z,38.56
2018-07-03T13:11:40.976Z,38.80
2018-07-03T13:14:10.616Z,39.36
2018-07-03T13:16:40.317Z,39.44
2018-07-03T13:19:10.490Z,40.35
2018-07-03T13:21:40.119Z,39.92
2018-07-03T13:24:10.221Z,39.40
2018-07-03T13:26:39.963Z,39.02
2018-07-03T13:29:10.117Z,38.80
2018-07-03T13:31:40.101Z,38.79
2018-07-03T13:34:10.234Z,37.79
2018-07-03T13:36:40.234Z,38.65
2018-07-03T13:39:11.114Z,38.34
2018-07-03T13:41:40.731Z,38.60
2018-07-03T13:44:10.419Z,38.60
2018-07-03T13:46:40.708Z,38.51
2018-07-03T13:49:10.467Z,38.76
2018-07-03T13:51:40.295Z,38.91
2018-07-03T13:54:10.630Z,39.37
2018-07-03T13:56:40.796Z,39.32
2018-07-03T13:59:11.289Z,39.78
2018-07-03T14:01:41.075Z,39.36
2018-07-03T14:04:10.897Z,39.41
2018-07-03T14:06:40.581Z,39.38
2018-07-03T14:09:10.431Z,38.92
2018-07-03T14:11:40.788Z,39.19
2018-07-03T14:14:10.647Z,39.50
2018-07-03T14:16:40.806Z,39.92
2018-07-03T14:19:10.502Z,40.47
2018-07-03T14:21:40.345Z,40.48
2018-07-03T14:24:10.068Z,40.04
2018-07-03T14:26:39.728Z,39.81
2018-07-03T14:29:10.395Z,39.84
2018-07-03T14:31:40.177Z,39.49
2018-07-03T14:34:09.746Z,38.79
2018-07-03T14:36:39.599Z,39.02
2018-07-03T14:39:12.161Z,39.45
2018-07-03T14:41:42.359Z,39.80
2018-07-03T14:44:12.316Z,39.59
2018-07-03T14:46:42.549Z,39.92
2018-07-03T14:49:12.224Z,40.06
2018-07-03T14:51:41.785Z,39.90
2018-07-03T14:54:11.476Z,39.76
2018-07-03T14:56:41.374Z,39.94
2018-07-03T14:59:11.491Z,39.96
2018-07-03T15:01:41.540Z,39.42
2018-07-03T15:04:11.127Z,39.73
2018-07-03T15:06:40.994Z,39.94
2018-07-03T15:09:12.320Z,39.81
2018-07-03T15:11:42.442Z,39.69
2018-07-03T15:14:12.207Z,39.96
2018-07-03T15:16:42.223Z,40.12
2018-07-03T15:19:16.732Z,40.28
2018-07-03T15:21:47.088Z,40.30
2018-07-03T15:24:16.879Z,40.50
2018-07-03T15:26:47.040Z,40.79
2018-07-03T15:29:16.927Z,40.93
2018-07-03T15:31:46.983Z,41.11
2018-07-03T15:34:16.531Z,41.11
2018-07-03T15:36:46.788Z,41.10
2018-07-03T15:39:16.603Z,40.43
2018-07-03T15:41:46.800Z,40.64
2018-07-03T15:44:28.111Z,40.81
2018-07-03T15:46:58.473Z,41.07
2018-07-03T15:49:28.153Z,41.24
2018-07-03T15:51:57.851Z,41.25
2018-07-03T15:54:28.115Z,41.16
2018-07-03T15:56:57.683Z,40.88
2018-07-03T15:59:27.339Z,40.65
2018-07-03T16:01:57.624Z,39.99
2018-07-03T16:05:06.162Z,38.93
2018-07-03T16:07:45.591Z,37.60
2018-07-03T16:10:15.386Z,37.10
2018-07-03T16:12:44.991Z,36.53
2018-07-03T16:15:15.247Z,35.98
2018-07-03T16:17:45.109Z,35.89
2018-07-03T16:20:20.274Z,35.56
2018-07-03T16:22:50.206Z,34.87
2018-07-03T16:25:20.378Z,34.41
2018-07-03T16:27:50.151Z,34.16
2018-07-03T16:30:19.820Z,34.03
2018-07-03T16:32:49.784Z,33.87
2018-07-03T16:35:19.335Z,33.53
2018-07-03T16:37:49.655Z,33.39
2018-07-03T16:40:19.534Z,33.17
2018-07-03T16:42:49.384Z,33.22
2018-07-03T16:45:19.613Z,33.09
2018-07-03T16:47:49.450Z,33.01
2018-07-03T16:50:19.660Z,32.86
2018-07-03T16:52:49.776Z,32.70
2018-07-03T16:55:19.678Z,32.60
2018-07-03T16:57:50.160Z,32.68
2018-07-03T17:00:29.220Z,32.82
2018-07-03T17:02:59.275Z,32.88
2018-07-03T17:05:29.284Z,32.90
2018-07-03T17:07:59.523Z,32.76
2018-07-03T17:10:29.332Z,32.98
2018-07-03T17:12:59.394Z,32.88
2018-07-03T17:15:29.803Z,32.91
2018-07-03T17:17:59.699Z,32.66
2018-07-03T17:20:29.409Z,32.70
2018-07-03T17:22:59.146Z,32.46
2018-07-03T17:25:28.847Z,32.07
2018-07-03T17:27:58.597Z,32.12
2018-07-03T17:30:28.226Z,31.77
2018-07-03T17:32:57.815Z,31.54
2018-07-03T17:35:28.185Z,31.64
2018-07-03T17:37:57.798Z,31.13
2018-07-03T17:40:39.157Z,30.94
2018-07-03T17:43:32.044Z,30.65
2018-07-03T17:46:07.532Z,30.23
2018-07-03T17:48:37.581Z,30.19
2018-07-03T17:51:07.309Z,29.40
2018-07-03T17:53:37.096Z,29.76
2018-07-03T17:56:06.948Z,29.77
2018-07-03T17:58:36.524Z,29.48
2018-07-03T18:01:06.347Z,29.19
2018-07-03T18:03:35.926Z,29.24
2018-07-03T18:06:05.984Z,29.10
2018-07-03T18:08:35.489Z,28.83
2018-07-03T18:11:05.602Z,28.65
2018-07-03T18:13:35.321Z,28.50
2018-07-03T18:16:05.048Z,28.40
2018-07-03T18:18:34.750Z,28.34
2018-07-03T18:21:04.880Z,28.37
2018-07-03T18:23:34.553Z,28.14
2018-07-03T18:26:04.509Z,28.22
2018-07-03T18:28:34.394Z,28.30
2018-07-03T18:31:04.395Z,28.19
2018-07-03T18:33:34.135Z,28.16
2018-07-03T18:36:04.246Z,28.04
2018-07-03T18:38:34.070Z,27.85
2018-07-03T18:41:03.996Z,27.70
2018-07-03T18:43:33.646Z,27.60
2018-07-03T18:46:03.589Z,27.53
2018-07-03T18:48:33.594Z,27.55
2018-07-03T18:51:03.829Z,27.40
2018-07-03T18:53:33.793Z,27.24
2018-07-03T18:56:03.589Z,27.14
2018-07-03T18:58:33.409Z,27.02
2018-07-03T19:01:03.143Z,26.98
2018-07-03T19:03:33.248Z,26.92
2018-07-03T19:06:03.050Z,26.86
2018-07-03T19:08:33.146Z,26.70
2018-07-03T19:11:03.399Z,26.70
2018-07-03T19:13:33.176Z,26.57
2018-07-03T19:16:03.304Z,26.41
2018-07-03T19:18:33.030Z,26.38
2018-07-03T19:21:03.173Z,26.36
2018-07-03T19:23:33.134Z,26.29
2018-07-03T19:26:02.770Z,26.37
2018-07-03T19:28:32.399Z,26.38
2018-07-03T19:31:01.967Z,26.29
2018-07-03T19:33:32.023Z,26.11
2018-07-03T19:36:01.848Z,26.03
2018-07-03T19:38:31.726Z,25.92
2018-07-03T19:41:01.654Z,25.99
2018-07-03T19:43:32.721Z,26.08
2018-07-03T19:46:02.757Z,25.78
2018-07-03T19:48:33.211Z,25.87
2018-07-03T19:51:02.946Z,25.80
2018-07-03T19:53:32.707Z,25.70
2018-07-03T19:56:02.659Z,25.74
2018-07-03T19:58:32.278Z,25.40
2018-07-03T20:01:01.927Z,25.12
2018-07-03T20:03:31.635Z,25.15
2018-07-03T20:06:02.448Z,25.11
2018-07-03T20:08:32.618Z,24.96
2018-07-03T20:11:02.479Z,24.99
2018-07-03T20:13:32.230Z,25.06
2018-07-03T20:16:02.100Z,25.26
2018-07-03T20:18:31.997Z,25.31
2018-07-03T20:21:02.325Z,25.26
2018-07-03T20:23:32.089Z,25.20
2018-07-03T20:26:01.973Z,25.19
2018-07-03T20:28:31.574Z,25.24
2018-07-03T20:31:01.324Z,25.21
2018-07-03T20:33:31.431Z,25.06
2018-07-03T20:36:00.914Z,24.89
2018-07-03T20:38:30.518Z,25.02
2018-07-03T20:41:04.482Z,25.00
2018-07-03T20:43:36.588Z,24.95
2018-07-03T20:46:07.363Z,25.02
2018-07-03T20:48:37.078Z,25.04
2018-07-03T20:51:07.550Z,25.04
2018-07-03T20:53:37.404Z,24.63
2018-07-03T20:56:07.703Z,24.60
2018-07-03T20:58:37.229Z,24.44
2018-07-03T21:01:07.096Z,24.48
2018-07-03T21:03:36.903Z,24.04
2018-07-03T21:06:06.875Z,23.97
2018-07-03T21:08:36.587Z,23.96
2018-07-03T21:11:06.923Z,23.74
2018-07-03T21:13:36.603Z,23.56
2018-07-03T21:16:06.200Z,23.47
2018-07-03T21:18:35.955Z,23.41
2018-07-03T21:21:05.456Z,23.18
2018-07-03T21:23:35.262Z,23.27
2018-07-03T21:26:05.188Z,23.24
2018-07-03T21:28:34.715Z,23.13
2018-07-03T21:31:04.827Z,22.92
2018-07-03T21:33:34.724Z,23.06
2018-07-03T21:36:04.379Z,23.07
2018-07-03T21:38:34.703Z,22.98
2018-07-03T21:41:04.672Z,22.92
2018-07-03T21:43:34.816Z,22.80
2018-07-03T21:46:04.806Z,22.74
2018-07-03T21:48:35.096Z,22.72
2018-07-03T21:51:04.942Z,22.70
2018-07-03T21:53:34.508Z,22.81
2018-07-03T21:56:04.434Z,22.84
2018-07-03T21:58:34.050Z,22.73
2018-07-03T22:01:03.812Z,22.74
2018-07-03T22:03:34.186Z,22.72
2018-07-03T22:06:04.149Z,22.66
2018-07-03T22:08:34.243Z,22.58
2018-07-03T22:11:04.650Z,22.40
2018-07-03T22:13:34.452Z,22.26
2018-07-03T22:16:04.414Z,22.13
2018-07-03T22:18:34.111Z,22.42
2018-07-03T22:21:03.844Z,22.33
2018-07-03T22:23:33.982Z,22.42
2018-07-03T22:26:03.538Z,22.15
2018-07-03T22:28:33.158Z,22.16
2018-07-03T22:31:03.009Z,22.20
2018-07-03T22:33:32.606Z,22.13
2018-07-03T22:36:02.374Z,22.15
2018-07-03T22:38:32.766Z,21.90
2018-07-03T22:41:02.385Z,21.99
2018-07-03T22:43:32.131Z,21.88
2018-07-03T22:46:02.159Z,21.85
2018-07-03T22:48:31.984Z,21.95
2018-07-03T22:51:01.630Z,22.00
2018-07-03T22:53:31.553Z,22.08
2018-07-03T22:56:01.139Z,22.07
2018-07-03T22:58:31.135Z,22.09
2018-07-03T23:01:00.896Z,22.19
2018-07-03T23:03:30.998Z,22.21
2018-07-03T23:06:00.870Z,22.17
2018-07-03T23:08:31.058Z,22.20
2018-07-03T23:11:01.027Z,21.89
2018-07-03T23:13:31.356Z,22.00
2018-07-03T23:16:01.099Z,21.71
2018-07-03T23:18:31.287Z,21.89
2018-07-03T23:21:00.866Z,21.81
2018-07-03T23:23:30.393Z,21.63
2018-07-03T23:26:00.297Z,21.70
2018-07-03T23:28:30.051Z,21.55
2018-07-03T23:30:59.730Z,21.49
2018-07-03T23:33:29.598Z,21.37
2018-07-03T23:35:59.359Z,21.27
2018-07-03T23:38:29.134Z,21.29
2018-07-03T23:40:59.461Z,21.33
2018-07-03T23:43:29.310Z,21.36
2018-07-03T23:45:58.702Z,21.41
2018-07-03T23:48:39.504Z,21.30
2018-07-03T23:51:27.796Z,21.13
2018-07-03T23:54:14.591Z,21.15
2018-07-03T23:57:01.353Z,21.11
2018-07-03T23:59:48.596Z,21.25
